Time;durP1;ratioP1;P1;durP2;ratioP2;P2;SDS_P1;SDS_P2;PMS_P1;PMS_P2;Temp;Humidity;BMP_temperature;BMP_pressure;BME280_temperature;BME280_humidity;BME280_pressure;Samples;Min_cycle;Max_cycle;Signal;HPM_P1;HPM_P2
2022/07/25 00:02:00;;;;;;;12.15;11.35;;;;;;;19.01;48.10;100596.00;5120390;27;20516;-80
2022/07/25 00:04:25;;;;;;;11.25;10.48;;;;;;;19.02;48.44;100592.38;5124274;27;20122;-80
2022/07/25 00:06:50;;;;;;;10.27;9.68;;;;;;;19.03;47.92;100589.66;5121354;28;20409;-79
2022/07/25 00:09:16;;;;;;;10.82;10.07;;;;;;;19.04;47.99;100587.84;5123633;28;20540;-79
2022/07/25 00:11:41;;;;;;;10.65;9.98;;;;;;;19.02;47.97;100590.59;5121664;28;20067;-79
2022/07/25 00:14:06;;;;;;;11.77;10.77;;;;;;;19.02;47.81;100581.69;5103880;28;20473;-79
2022/07/25 00:16:32;;;;;;;11.65;10.95;;;;;;;19.02;48.01;100577.22;5123883;28;20031;-79
2022/07/25 00:18:57;;;;;;;11.27;10.55;;;;;;;19.01;48.24;100579.94;5120845;28;20035;-79
2022/07/25 00:21:22;;;;;;;10.23;9.52;;;;;;;18.99;48.09;100573.78;5122824;28;20110;-79
2022/07/25 00:23:48;;;;;;;10.98;10.27;;;;;;;18.97;48.15;100573.00;5070378;28;20710;-79
2022/07/25 00:26:13;;;;;;;11.45;10.63;;;;;;;18.96;48.41;100571.25;5123058;28;20472;-79
2022/07/25 00:28:39;;;;;;;11.07;10.30;;;;;;;18.95;48.42;100577.53;5118166;28;20039;-80
2022/07/25 00:31:04;;;;;;;11.27;10.55;;;;;;;18.92;48.62;100565.16;5121539;28;20039;-80
2022/07/25 00:33:29;;;;;;;11.13;10.13;;;;;;;18.94;48.25;100565.97;5122692;28;20095;-80
2022/07/25 00:35:55;;;;;;;10.50;9.80;;;;;;;18.94;48.23;100565.06;5120904;28;20051;-80
2022/07/25 00:38:20;;;;;;;11.43;10.55;;;;;;;18.93;48.32;100564.22;5124392;28;20035;-79
2022/07/25 00:40:45;;;;;;;11.23;10.52;;;;;;;18.91;48.53;100557.19;5121424;28;20039;-79
2022/07/25 00:43:11;;;;;;;10.98;10.18;;;;;;;18.92;48.74;100561.63;5122154;28;20393;-79
2022/07/25 00:45:36;;;;;;;10.85;10.15;;;;;;;18.87;48.73;100560.94;5123042;28;20462;-79
2022/07/25 00:48:02;;;;;;;10.68;9.95;;;;;;;18.82;49.33;100556.63;5121355;28;20626;-79
2022/07/25 00:50:27;;;;;;;10.38;9.68;;;;;;;18.78;48.91;100554.13;5121981;28;20039;-80
2022/07/25 00:52:52;;;;;;;11.25;10.35;;;;;;;18.76;49.10;100553.34;5065033;28;20039;-79
2022/07/25 00:55:18;;;;;;;11.18;10.43;;;;;;;18.76;49.04;100545.31;5105623;28;20069;-79
2022/07/25 00:57:44;;;;;;;11.70;10.80;;;;;;;18.75;49.51;100547.09;5121608;28;20031;-80
2022/07/25 01:00:13;;;;;;;12.70;11.80;;;;;;;18.77;49.51;100541.69;5104415;28;20374;-79
2022/07/25 01:02:39;;;;;;;11.23;10.43;;;;;;;18.76;49.26;100548.00;5102392;28;20515;-79
2022/07/25 01:05:05;;;;;;;11.35;10.55;;;;;;;18.71;49.34;100540.13;5102293;28;20031;-79
2022/07/25 01:07:30;;;;;;;12.32;11.52;;;;;;;18.71;49.52;100541.94;5105790;28;20125;-79
2022/07/25 01:09:56;;;;;;;12.38;11.18;;;;;;;18.72;49.38;100541.84;5103577;28;20114;-80
2022/07/25 01:12:22;;;;;;;12.50;11.50;;;;;;;18.72;49.93;100540.97;5101324;28;20114;-79
2022/07/25 01:14:47;;;;;;;12.10;11.15;;;;;;;18.70;49.93;100533.00;5123251;27;20087;-80
2022/07/25 01:17:12;;;;;;;11.43;10.52;;;;;;;18.70;49.35;100533.00;5126935;27;20039;-79
2022/07/25 01:19:38;;;;;;;11.40;10.40;;;;;;;18.68;49.42;100534.91;5124295;27;20036;-80
2022/07/25 01:22:03;;;;;;;11.18;10.38;;;;;;;18.66;49.78;100536.75;5126998;27;20035;-79
2022/07/25 01:24:29;;;;;;;12.70;11.52;;;;;;;18.66;49.69;100536.75;5124510;27;20040;-79
2022/07/25 01:26:54;;;;;;;11.20;10.40;;;;;;;18.65;49.57;100536.81;5126268;27;20042;-79
2022/07/25 01:29:20;;;;;;;11.05;10.25;;;;;;;18.62;50.24;100525.28;5122984;27;20031;-79
2022/07/25 01:31:45;;;;;;;11.68;10.77;;;;;;;18.59;50.08;100524.56;5122545;27;20044;-79
2022/07/25 01:34:10;;;;;;;10.82;10.05;;;;;;;18.51;50.03;100518.63;5122189;27;20729;-80
2022/07/25 01:36:36;;;;;;;11.55;10.50;;;;;;;18.43;50.27;100515.41;5086658;27;20039;-80
2022/07/25 01:39:01;;;;;;;11.93;11.02;;;;;;;18.43;50.33;100520.75;5101187;28;20410;-80
2022/07/25 01:41:27;;;;;;;12.25;11.20;;;;;;;18.43;50.62;100516.25;5123669;27;20043;-79
2022/07/25 01:43:52;;;;;;;11.65;10.85;;;;;;;18.46;50.12;100509.94;5126000;27;20047;-80
2022/07/25 01:46:17;;;;;;;12.13;11.23;;;;;;;18.44;50.48;100507.31;5125803;27;20122;-79
2022/07/25 01:48:42;;;;;;;11.52;10.68;;;;;;;18.39;50.54;100504.84;5124502;27;20071;-79
2022/07/25 01:51:09;;;;;;;12.27;11.27;;;;;;;18.36;50.76;100504.94;5126393;27;20050;-79
2022/07/25 01:53:35;;;;;;;11.73;10.73;;;;;;;18.35;51.19;100497.84;5123670;27;20040;-79
2022/07/25 01:56:00;;;;;;;11.77;10.68;;;;;;;18.36;50.61;100502.25;5126584;27;20644;-79
2022/07/25 01:58:25;;;;;;;11.75;10.95;;;;;;;18.33;50.78;100504.19;5124585;27;20039;-80
2022/07/25 02:00:51;;;;;;;10.82;10.00;;;;;;;18.32;51.15;100499.78;5124806;27;20044;-81
2022/07/25 02:03:29;;;;;;;11.05;10.00;;;;;;;18.30;50.97;100505.19;5122228;27;20042;-80
2022/07/25 02:05:56;;;;;;;10.98;10.15;;;;;;;18.27;51.23;100507.09;5087291;27;20062;-80
2022/07/25 02:08:22;;;;;;;11.23;10.40;;;;;;;18.27;51.02;100501.75;5090305;27;20037;-78
2022/07/25 02:10:47;;;;;;;10.15;9.43;;;;;;;18.26;51.17;100494.66;5125532;27;20127;-80
2022/07/25 02:13:12;;;;;;;10.60;9.73;;;;;;;18.22;51.03;100493.91;5122985;27;20401;-78
2022/07/25 02:15:38;;;;;;;9.85;9.15;;;;;;;18.19;51.52;100499.38;5084431;28;20081;-79
2022/07/25 02:18:03;;;;;;;10.15;9.30;;;;;;;18.17;51.32;100494.09;5126508;27;20035;-80
2022/07/25 02:20:29;;;;;;;10.77;9.98;;;;;;;18.17;51.49;100495.91;5105794;27;20553;-79
2022/07/25 02:22:54;;;;;;;11.07;10.07;;;;;;;18.16;51.37;100488.81;5124485;27;20071;-79
2022/07/25 02:25:19;;;;;;;11.05;10.15;;;;;;;18.15;51.62;100490.59;5124651;27;20035;-80
2022/07/25 02:27:45;;;;;;;12.88;11.07;;;;;;;18.14;51.44;100485.34;5123847;27;20104;-79
2022/07/25 02:30:10;;;;;;;10.90;9.93;;;;;;;18.14;51.41;100485.34;5125992;27;20035;-79
2022/07/25 02:32:35;;;;;;;11.75;10.43;;;;;;;18.11;51.69;100477.44;5121681;27;20042;-79
2022/07/25 02:35:01;;;;;;;10.90;10.10;;;;;;;18.08;51.87;100485.56;5123291;27;20450;-79
2022/07/25 02:37:26;;;;;;;11.27;10.25;;;;;;;18.04;51.78;100486.59;5125462;27;20454;-79
2022/07/25 02:39:51;;;;;;;10.73;9.93;;;;;;;18.03;51.89;100490.22;5090178;27;20482;-79
2022/07/25 02:42:17;;;;;;;9.32;8.70;;;;;;;17.99;52.15;100485.91;5123189;27;20642;-79
2022/07/25 02:44:42;;;;;;;9.98;9.10;;;;;;;17.89;52.70;100480.94;5124915;27;20031;-79
2022/07/25 02:47:07;;;;;;;10.02;9.25;;;;;;;17.86;52.87;100475.69;5122709;27;20071;-80
2022/07/25 02:49:32;;;;;;;10.38;9.57;;;;;;;17.84;52.96;100477.56;5107648;27;20043;-79
2022/07/25 02:51:58;;;;;;;10.13;9.32;;;;;;;17.82;52.81;100478.53;5122433;27;20035;-78
2022/07/25 02:54:23;;;;;;;9.85;9.15;;;;;;;17.77;52.80;100468.00;5106463;27;20043;-79
2022/07/25 02:56:49;;;;;;;9.98;9.18;;;;;;;17.73;53.15;100469.88;5124107;27;20050;-79
2022/07/25 02:59:14;;;;;;;9.50;8.70;;;;;;;17.67;53.11;100461.25;5123372;27;20131;-79
2022/07/25 03:01:39;;;;;;;9.00;8.35;;;;;;;17.64;53.30;100467.56;5105195;27;20078;-80
2022/07/25 03:04:05;;;;;;;8.88;8.18;;;;;;;17.58;54.03;100467.81;5103233;28;20068;-79
2022/07/25 03:06:30;;;;;;;8.65;8.05;;;;;;;17.45;54.62;100464.69;5125548;27;20038;-80
2022/07/25 03:08:55;;;;;;;10.07;8.63;;;;;;;17.39;54.59;100470.22;5119522;27;20394;-81
2022/07/25 03:11:21;;;;;;;8.90;8.20;;;;;;;17.37;54.90;100465.88;5109188;27;20362;-79
2022/07/25 03:13:46;;;;;;;9.02;8.20;;;;;;;17.33;54.90;100459.78;5123389;27;20106;-79
2022/07/25 03:16:11;;;;;;;8.50;7.80;;;;;;;17.34;54.99;100464.19;5122688;27;20043;-80
2022/07/25 03:18:37;;;;;;;8.57;7.72;;;;;;;17.29;55.11;100463.47;5125544;27;20039;-79
2022/07/25 03:21:02;;;;;;;8.73;8.02;;;;;;;17.30;55.49;100466.09;5121574;27;20081;-80
2022/07/25 03:23:29;;;;;;;8.88;8.10;;;;;;;17.26;55.91;100463.59;5106755;27;20031;-79
2022/07/25 03:25:55;;;;;;;9.32;8.63;;;;;;;17.24;55.68;100460.13;5100246;27;20042;-79
2022/07/25 03:28:20;;;;;;;9.38;8.57;;;;;;;17.24;55.79;100457.44;5101575;27;20039;-79
2022/07/25 03:30:45;;;;;;;8.93;8.23;;;;;;;17.25;55.64;100456.53;5121709;27;20081;-80
2022/07/25 03:33:11;;;;;;;9.13;8.43;;;;;;;17.28;55.96;100459.06;5082070;28;20032;-79
2022/07/25 03:35:36;;;;;;;8.85;8.10;;;;;;;17.27;56.11;100447.53;5124159;27;20061;-79
2022/07/25 03:38:02;;;;;;;8.68;7.97;;;;;;;17.19;56.85;100451.41;5120819;27;20085;-79
2022/07/25 03:40:27;;;;;;;8.63;7.68;;;;;;;17.20;56.43;100453.13;5124372;27;20038;-79
2022/07/25 03:42:53;;;;;;;8.57;7.88;;;;;;;17.23;57.08;100453.88;5121729;27;20130;-79
2022/07/25 03:45:18;;;;;;;8.00;7.30;;;;;;;17.29;56.24;100447.47;5123186;27;20047;-79
2022/07/25 03:47:43;;;;;;;8.50;7.80;;;;;;;17.35;56.10;100436.59;5121266;27;20098;-79
2022/07/25 03:50:09;;;;;;;8.93;8.13;;;;;;;17.45;55.91;100435.34;5121778;27;20039;-80
2022/07/25 03:52:37;;;;;;;9.30;8.43;;;;;;;17.49;56.16;100434.28;5116979;27;20092;-80
2022/07/25 03:55:03;;;;;;;8.98;8.20;;;;;;;17.50;57.12;100435.16;5123750;27;20070;-78
2022/07/25 03:57:28;;;;;;;8.63;7.93;;;;;;;17.51;56.62;100429.78;5123356;27;20039;-79
2022/07/25 03:59:54;;;;;;;8.23;7.50;;;;;;;17.57;56.27;100431.34;5122720;27;20039;-79
2022/07/25 04:02:19;;;;;;;8.82;8.13;;;;;;;17.63;56.35;100427.56;5120354;27;20044;-79
2022/07/25 04:04:45;;;;;;;8.75;8.05;;;;;;;17.69;56.01;100430.03;5114697;27;20036;-79
2022/07/25 04:07:10;;;;;;;8.57;7.82;;;;;;;17.77;55.71;100422.63;5119944;27;20074;-79
2022/07/25 04:09:36;;;;;;;9.15;8.45;;;;;;;17.84;55.87;100412.59;5111349;28;20061;-79
2022/07/25 04:12:02;;;;;;;7.97;7.18;;;;;;;17.92;55.67;100418.50;5122290;28;20069;-79
2022/07/25 04:14:27;;;;;;;9.27;8.27;;;;;;;18.02;55.20;100416.34;5121851;28;20482;-79
2022/07/25 04:16:52;;;;;;;9.93;8.63;;;;;;;18.08;55.40;100400.97;5120053;28;20039;-79
2022/07/25 04:19:17;;;;;;;9.48;8.20;;;;;;;18.17;55.12;100403.28;5123912;28;20042;-78
2022/07/25 04:21:43;;;;;;;12.57;8.82;;;;;;;18.29;54.88;100398.41;5121011;28;20036;-79
2022/07/25 04:24:08;;;;;;;9.35;8.27;;;;;;;18.40;54.74;100398.81;5123309;28;20031;-79
2022/07/25 04:26:33;;;;;;;9.75;8.60;;;;;;;18.52;54.33;100387.66;5120297;28;20042;-79
2022/07/25 04:29:02;;;;;;;9.32;8.07;;;;;;;18.59;54.64;100388.25;5112184;28;20040;-80
2022/07/25 04:31:27;;;;;;;8.50;7.82;;;;;;;18.63;54.66;100381.84;5118675;28;20039;-79
2022/07/25 04:33:52;;;;;;;8.90;8.13;;;;;;;18.68;54.42;100377.19;5119710;28;20130;-79
2022/07/25 04:36:18;;;;;;;9.00;8.20;;;;;;;18.78;54.26;100377.66;5116893;28;20072;-79
2022/07/25 04:38:43;;;;;;;11.25;7.45;;;;;;;18.80;54.86;100374.00;5123192;28;20035;-79
2022/07/25 04:41:08;;;;;;;8.45;7.65;;;;;;;18.83;54.26;100371.19;5101870;28;20390;-79
2022/07/25 04:43:34;;;;;;;8.68;7.90;;;;;;;18.92;54.29;100367.28;5122150;28;20039;-80
2022/07/25 04:46:00;;;;;;;8.45;7.85;;;;;;;19.03;54.79;100370.34;5124833;28;20080;-79
2022/07/25 04:48:25;;;;;;;9.05;8.35;;;;;;;19.15;54.04;100368.94;5125802;27;20126;-80
2022/07/25 04:50:51;;;;;;;9.75;8.95;;;;;;;19.31;53.83;100365.56;5126177;27;20111;-81
2022/07/25 04:53:16;;;;;;;9.90;9.10;;;;;;;19.45;53.12;100365.81;5102231;27;20042;-79
2022/07/25 04:55:42;;;;;;;9.90;9.00;;;;;;;19.53;53.52;100358.31;5102333;27;20033;-79
2022/07/25 04:58:07;;;;;;;10.23;9.25;;;;;;;19.63;53.18;100359.63;5102800;27;20043;-79
2022/07/25 05:00:32;;;;;;;10.55;9.55;;;;;;;19.74;52.98;100352.94;5097533;27;20108;-79
2022/07/25 05:02:58;;;;;;;11.05;10.02;;;;;;;19.86;52.47;100349.69;5120082;27;20064;-79
2022/07/25 05:05:24;;;;;;;11.35;10.35;;;;;;;19.99;52.80;100344.59;5090840;28;20038;-79
2022/07/25 05:07:54;;;;;;;9.60;8.73;;;;;;;20.07;52.12;100343.28;5123606;27;20424;-79
2022/07/25 05:10:19;;;;;;;10.27;9.38;;;;;;;20.21;52.18;100339.06;5127416;27;20496;-79
2022/07/25 05:12:44;;;;;;;10.50;9.55;;;;;;;20.31;52.04;100329.63;5107255;27;20043;-79
2022/07/25 05:15:11;;;;;;;10.93;10.02;;;;;;;20.41;51.52;100328.22;5124226;27;20038;-79
2022/07/25 05:17:36;;;;;;;10.20;9.30;;;;;;;20.49;51.86;100322.50;5125580;27;20043;-79
2022/07/25 05:20:01;;;;;;;9.35;8.55;;;;;;;20.54;51.89;100325.81;5128785;27;20031;-79
2022/07/25 05:22:27;;;;;;;9.35;8.50;;;;;;;20.57;51.46;100326.53;5124450;27;20040;-79
2022/07/25 05:24:52;;;;;;;11.60;9.27;;;;;;;20.67;51.21;100323.38;5126809;27;20049;-79
2022/07/25 05:27:17;;;;;;;9.77;9.00;;;;;;;20.73;51.36;100309.66;5126300;27;20106;-79
2022/07/25 05:29:43;;;;;;;10.55;9.60;;;;;;;20.78;50.78;100310.31;5126868;27;20038;-79
2022/07/25 05:32:08;;;;;;;9.90;9.10;;;;;;;20.84;50.92;100306.44;5122011;27;20051;-79
2022/07/25 05:34:33;;;;;;;12.52;10.55;;;;;;;20.96;50.73;100309.34;5128254;27;20073;-79
2022/07/25 05:36:59;;;;;;;11.48;10.57;;;;;;;21.07;50.65;100313.25;5125192;27;20067;-80
2022/07/25 05:39:24;;;;;;;10.43;9.48;;;;;;;21.17;50.21;100310.00;5126185;27;20485;-79
2022/07/25 05:41:50;;;;;;;10.82;9.85;;;;;;;21.31;50.26;100309.25;5104447;27;20043;-79
2022/07/25 05:44:15;;;;;;;11.43;10.32;;;;;;;21.42;49.75;100309.56;5126103;27;20077;-79
2022/07/25 05:46:40;;;;;;;10.35;9.48;;;;;;;21.47;50.03;100300.41;5126101;27;20039;-80
2022/07/25 05:49:06;;;;;;;11.15;10.25;;;;;;;21.55;49.84;100301.69;5124139;27;20083;-80
2022/07/25 05:51:31;;;;;;;11.57;10.77;;;;;;;21.69;50.04;100303.59;5127517;27;20039;-80
2022/07/25 05:53:56;;;;;;;11.07;10.18;;;;;;;21.82;49.46;100296.63;5119549;27;20374;-79
2022/07/25 05:56:22;;;;;;;9.75;8.82;;;;;;;21.93;49.49;100297.81;5125611;27;20401;-79
2022/07/25 05:58:47;;;;;;;11.93;10.70;;;;;;;22.08;48.91;100296.94;5074312;27;20038;-79
2022/07/25 06:01:14;;;;;;;11.13;10.13;;;;;;;22.24;48.89;100286.19;5119922;27;20043;-79
2022/07/25 06:03:40;;;;;;;12.18;11.27;;;;;;;22.41;48.81;100293.28;5122268;27;20065;-79
2022/07/25 06:06:07;;;;;;;10.77;9.80;;;;;;;22.56;48.71;100291.47;5124675;27;20040;-79
2022/07/25 06:08:33;;;;;;;13.30;12.15;;;;;;;22.70;48.94;100288.84;5120603;27;20047;-79
2022/07/25 06:10:59;;;;;;;11.70;10.65;;;;;;;22.84;48.46;100291.53;5107625;27;20035;-79
2022/07/25 06:13:27;;;;;;;12.65;11.35;;;;;;;23.01;48.19;100284.31;5103904;27;20024;-79
2022/07/25 06:15:53;;;;;;;12.55;11.55;;;;;;;23.16;48.17;100284.22;5123976;27;20030;-79
2022/07/25 06:18:18;;;;;;;12.90;11.80;;;;;;;23.30;47.64;100285.19;5095544;28;20031;-79
2022/07/25 06:20:43;;;;;;;13.93;12.82;;;;;;;23.45;47.49;100281.53;5091911;27;20039;-79
2022/07/25 06:23:09;;;;;;;14.02;12.82;;;;;;;23.62;47.61;100273.22;5126093;27;20190;-79
2022/07/25 06:25:34;;;;;;;13.35;11.98;;;;;;;23.79;47.06;100279.38;5099675;27;20066;-79
2022/07/25 06:28:00;;;;;;;13.13;12.02;;;;;;;23.93;46.91;100271.25;5122639;27;20071;-79
2022/07/25 06:30:25;;;;;;;13.93;12.73;;;;;;;24.08;46.81;100263.09;5124698;27;20058;-79
2022/07/25 06:32:51;;;;;;;11.93;10.88;;;;;;;24.25;47.09;100257.44;5121972;27;20031;-79
2022/07/25 06:35:17;;;;;;;11.95;11.07;;;;;;;24.44;46.87;100254.38;5105147;28;20050;-79
2022/07/25 06:37:42;;;;;;;12.18;11.27;;;;;;;24.68;46.42;100251.84;5127715;27;20039;-79
2022/07/25 06:40:08;;;;;;;18.95;16.65;;;;;;;24.90;46.01;100241.28;5127078;27;20074;-79
2022/07/25 06:42:38;;;;;;;17.50;15.77;;;;;;;25.10;45.61;100239.88;5123453;27;20038;-79
2022/07/25 06:45:05;;;;;;;16.42;14.85;;;;;;;25.29;45.40;100247.53;5102313;27;20088;-79
2022/07/25 06:47:30;;;;;;;14.40;13.15;;;;;;;25.48;44.69;100249.78;5116876;27;20038;-79
2022/07/25 06:49:56;;;;;;;13.50;12.27;;;;;;;25.72;44.18;100238.13;5099657;27;20031;-80
2022/07/25 06:52:21;;;;;;;14.15;12.85;;;;;;;25.94;44.23;100242.84;5120832;27;20405;-79
2022/07/25 06:54:46;;;;;;;15.63;14.13;;;;;;;26.15;43.56;100241.22;5098183;27;21064;-79
2022/07/25 06:57:12;;;;;;;15.45;13.52;;;;;;;26.43;42.79;100236.41;5117466;27;20087;-79
2022/07/25 06:59:37;;;;;;;17.33;15.73;;;;;;;26.65;42.19;100231.09;5123183;27;20036;-78
2022/07/25 07:02:02;;;;;;;17.17;15.43;;;;;;;26.78;41.76;100232.84;5121809;27;20047;-79
2022/07/25 07:04:27;;;;;;;13.38;12.10;;;;;;;26.86;41.28;100230.38;5126093;27;20039;-79
2022/07/25 07:06:53;;;;;;;14.73;13.43;;;;;;;26.96;41.45;100225.97;5089659;27;20040;-79
2022/07/25 07:09:18;;;;;;;12.93;11.55;;;;;;;27.07;40.91;100214.28;5125583;27;20031;-79
2022/07/25 07:11:43;;;;;;;13.95;12.80;;;;;;;27.13;40.63;100218.34;5121651;27;20046;-79
2022/07/25 07:14:09;;;;;;;21.00;13.43;;;;;;;27.20;40.41;100214.19;5123700;27;20039;-79
2022/07/25 07:16:35;;;;;;;13.63;12.27;;;;;;;27.32;40.05;100216.72;5124877;27;20031;-79
2022/07/25 07:19:00;;;;;;;15.43;13.52;;;;;;;27.43;39.52;100207.75;5121828;27;20052;-79
2022/07/25 07:21:26;;;;;;;14.07;12.73;;;;;;;27.60;39.79;100206.34;5125741;27;20124;-79
2022/07/25 07:23:51;;;;;;;15.82;14.27;;;;;;;27.79;39.67;100213.81;5101962;27;20532;-79
2022/07/25 07:26:17;;;;;;;17.35;14.75;;;;;;;27.95;39.48;100208.00;5119126;27;20469;-79
2022/07/25 07:28:42;;;;;;;14.85;13.38;;;;;;;28.10;39.28;100201.28;5122371;27;20114;-79
2022/07/25 07:31:07;;;;;;;16.40;14.75;;;;;;;28.22;38.52;100202.09;5104018;27;20046;-79
2022/07/25 07:33:34;;;;;;;16.77;14.93;;;;;;;28.37;38.32;100206.22;5120985;27;20043;-79
2022/07/25 07:36:00;;;;;;;18.00;16.05;;;;;;;28.51;38.06;100212.34;5107540;27;20039;-80
2022/07/25 07:38:25;;;;;;;20.45;13.95;;;;;;;28.61;37.55;100196.97;5123153;27;20055;-79
2022/07/25 07:40:52;;;;;;;15.18;13.60;;;;;;;28.71;37.82;100199.75;5119588;27;20461;-80
2022/07/25 07:43:17;;;;;;;14.45;11.27;;;;;;;28.82;37.32;100203.25;5121233;27;20031;-79
2022/07/25 07:45:43;;;;;;;13.45;12.20;;;;;;;28.95;37.22;100192.16;5123043;27;20042;-79
2022/07/25 07:48:08;;;;;;;13.55;12.35;;;;;;;29.03;35.91;100196.91;5119838;27;20038;-79
2022/07/25 07:50:34;;;;;;;13.80;12.50;;;;;;;29.11;36.52;100197.13;5117895;27;20027;-80
2022/07/25 07:53:00;;;;;;;17.45;15.30;;;;;;;29.23;36.36;100187.84;5122263;27;20511;-79
2022/07/25 07:55:44;;;;;;;17.23;15.48;;;;;;;29.39;36.27;100189.19;5121259;27;20036;-80
2022/07/25 07:58:14;;;;;;;15.88;14.38;;;;;;;29.52;35.36;100181.63;5089726;27;20494;-79
2022/07/25 08:00:40;;;;;;;15.68;14.32;;;;;;;29.65;35.58;100178.69;5102481;28;20435;-80
2022/07/25 08:03:09;;;;;;;17.90;16.10;;;;;;;29.81;35.55;100178.13;5103166;28;20081;-80
2022/07/25 08:05:43;;;;;;;18.13;16.33;;;;;;;29.92;35.46;100180.72;5126125;27;20103;-80
2022/07/25 08:08:11;;;;;;;13.25;12.00;;;;;;;30.00;35.12;100178.16;5124159;27;20111;-79
2022/07/25 08:10:39;;;;;;;13.68;12.48;;;;;;;30.08;34.88;100172.84;5120252;28;20103;-79
2022/07/25 08:13:17;;;;;;;15.93;13.63;;;;;;;30.07;34.37;100176.56;5107086;28;20076;-80
2022/07/25 08:15:44;;;;;;;14.40;12.95;;;;;;;30.22;34.17;100171.53;5122286;28;20406;-79
2022/07/25 08:18:10;;;;;;;14.27;13.07;;;;;;;30.36;34.06;100175.69;5123758;28;20036;-80
2022/07/25 08:20:35;;;;;;;16.98;15.38;;;;;;;30.40;34.05;100168.13;5125500;28;20043;-80
2022/07/25 08:23:02;;;;;;;17.90;16.23;;;;;;;30.51;32.96;100162.50;5087168;27;20035;-79
2022/07/25 08:25:27;;;;;;;18.70;16.73;;;;;;;30.62;33.72;100162.31;5128124;27;20047;-80
2022/07/25 08:27:53;;;;;;;14.63;13.23;;;;;;;30.59;32.24;100162.63;5109205;27;20047;-80
2022/07/25 08:30:18;;;;;;;12.00;11.00;;;;;;;30.74;33.02;100154.84;5129113;27;20030;-80
2022/07/25 08:32:46;;;;;;;12.18;11.18;;;;;;;30.88;32.49;100162.56;5125620;27;20066;-80
2022/07/25 08:35:12;;;;;;;13.48;12.15;;;;;;;31.00;31.87;100157.78;5126910;27;20118;-80
2022/07/25 08:37:37;;;;;;;13.15;12.15;;;;;;;31.09;32.54;100161.47;5124125;27;20501;-80
2022/07/25 08:40:03;;;;;;;16.50;15.10;;;;;;;31.16;31.32;100148.94;5129921;27;20043;-80
2022/07/25 08:42:29;;;;;;;16.75;14.90;;;;;;;31.16;31.39;100149.81;5129712;27;20069;-80
2022/07/25 08:45:12;;;;;;;15.68;14.38;;;;;;;31.23;31.61;100148.19;5114418;27;20035;-78
2022/07/25 08:47:38;;;;;;;16.25;14.77;;;;;;;31.20;31.61;100155.78;5096444;28;20543;-80
2022/07/25 08:50:07;;;;;;;16.85;14.90;;;;;;;31.28;31.35;100153.16;5118503;27;20031;-79
2022/07/25 08:52:34;;;;;;;16.42;14.93;;;;;;;31.39;31.24;100143.97;5114967;27;20038;-80
2022/07/25 08:55:01;;;;;;;19.25;17.45;;;;;;;31.48;30.74;100144.91;5106112;27;20046;-80
2022/07/25 08:57:27;;;;;;;17.27;15.00;;;;;;;31.50;30.67;100134.72;5124887;27;20031;-80
2022/07/25 08:59:52;;;;;;;16.05;14.65;;;;;;;31.58;30.38;100127.47;5124650;27;20034;-81
2022/07/25 09:02:17;;;;;;;22.63;17.58;;;;;;;31.77;30.84;100120.16;5118920;27;20047;-81
2022/07/25 09:04:43;;;;;;;14.65;13.32;;;;;;;31.83;30.27;100125.84;5119487;27;20059;-81
2022/07/25 09:07:08;;;;;;;14.27;12.98;;;;;;;31.92;30.33;100115.00;5125122;27;20497;-82
2022/07/25 09:09:37;;;;;;;14.43;13.15;;;;;;;31.97;30.01;100119.00;5121573;27;20559;-81
2022/07/25 09:12:03;;;;;;;17.00;15.60;;;;;;;31.94;29.71;100112.97;5107467;27;20451;-81
2022/07/25 09:14:29;;;;;;;14.75;13.18;;;;;;;32.04;29.66;100117.34;5123596;27;20034;-82
2022/07/25 09:16:55;;;;;;;14.65;13.20;;;;;;;32.17;29.10;100116.06;5123543;27;20031;-82
2022/07/25 09:19:22;;;;;;;15.43;14.07;;;;;;;32.14;28.01;100114.50;5098595;27;20061;-81
2022/07/25 09:22:05;;;;;;;14.00;12.65;;;;;;;32.34;28.39;100111.59;5125405;27;20413;-81
2022/07/25 09:24:32;;;;;;;12.75;11.35;;;;;;;32.48;28.46;100111.03;5107573;28;20093;-81
2022/07/25 09:26:59;;;;;;;13.93;12.75;;;;;;;32.60;28.77;100108.88;5111418;27;20038;-81
2022/07/25 09:29:31;;;;;;;14.65;13.20;;;;;;;32.72;28.40;100104.84;5107912;27;20035;-81
2022/07/25 09:31:58;;;;;;;12.20;11.23;;;;;;;32.89;27.78;100087.50;5107005;28;20058;-81
2022/07/25 09:34:35;;;;;;;12.82;11.88;;;;;;;33.13;26.93;100084.03;5123679;27;20459;-82
2022/07/25 09:37:02;;;;;;;16.58;15.23;;;;;;;33.40;27.13;100087.50;5122380;27;20027;-81
2022/07/25 09:39:41;;;;;;;14.70;13.25;;;;;;;33.44;26.50;100079.84;5123914;27;20050;-81
2022/07/25 09:42:26;;;;;;;15.70;14.32;;;;;;;33.72;26.29;100062.09;5090968;27;20585;-81
2022/07/25 09:45:04;;;;;;;15.05;13.82;;;;;;;33.92;26.13;100075.44;5125329;27;20484;-81
2022/07/25 09:47:32;;;;;;;13.77;12.48;;;;;;;33.79;26.23;100059.53;5108590;27;20069;-82
2022/07/25 09:49:58;;;;;;;15.75;14.40;;;;;;;33.57;26.75;100053.72;5120113;27;20068;-81
2022/07/25 09:52:23;;;;;;;13.95;12.65;;;;;;;33.63;26.39;100054.91;5122018;27;20039;-82
2022/07/25 09:54:48;;;;;;;12.48;11.38;;;;;;;33.54;26.03;100065.00;5122254;27;20084;-82
2022/07/25 09:57:14;;;;;;;13.02;12.05;;;;;;;33.43;25.86;100059.81;5122831;27;20034;-82
2022/07/25 09:59:40;;;;;;;14.38;13.07;;;;;;;33.53;26.23;100056.91;5125620;27;20063;-76
2022/07/25 10:02:10;;;;;;;13.00;11.80;;;;;;;33.65;26.37;100054.75;5120464;27;20489;-79
2022/07/25 10:05:07;;;;;;;14.10;12.90;;;;;;;33.73;25.43;100039.19;5122187;27;20470;-79
2022/07/25 10:07:36;;;;;;;11.75;10.90;;;;;;;33.87;25.16;100034.88;5123210;27;20031;-79
2022/07/25 10:10:03;;;;;;;14.50;13.15;;;;;;;34.09;25.81;100036.09;5120804;27;20102;-76
2022/07/25 10:12:28;;;;;;;14.10;12.88;;;;;;;34.15;26.04;100029.91;5112564;27;20039;-77
2022/07/25 10:15:12;;;;;;;14.52;13.32;;;;;;;34.33;25.15;100023.38;5123775;27;20035;-77
2022/07/25 10:17:40;;;;;;;13.05;12.07;;;;;;;34.42;25.22;100025.91;5123770;27;20046;-76
2022/07/25 10:20:09;;;;;;;13.93;12.43;;;;;;;34.45;25.07;100014.59;5122456;27;20036;-76
2022/07/25 10:22:39;;;;;;;11.77;10.70;;;;;;;34.69;25.23;100023.78;5118195;27;20542;-76
2022/07/25 10:25:16;;;;;;;16.95;15.38;;;;;;;34.68;24.99;100011.94;5120588;27;20507;-77
2022/07/25 10:27:48;;;;;;;11.10;10.30;;;;;;;34.83;23.70;100008.47;5120364;27;20038;-77
2022/07/25 10:30:25;;;;;;;14.77;13.50;;;;;;;34.79;24.14;100005.22;5126390;27;20031;-78
2022/07/25 10:33:02;;;;;;;12.73;11.77;;;;;;;34.93;23.49;99997.28;5126038;27;20059;-77
2022/07/25 10:35:28;;;;;;;12.98;11.88;;;;;;;34.71;23.11;99998.94;5124870;27;20114;-77
2022/07/25 10:37:56;;;;;;;11.85;10.95;;;;;;;34.65;23.26;99997.75;5121099;27;20114;-77
2022/07/25 10:40:46;;;;;;;10.20;9.40;;;;;;;34.71;23.01;99993.44;5106983;27;20027;-77
2022/07/25 10:43:19;;;;;;;11.80;10.90;;;;;;;34.66;23.19;99991.25;5107427;27;20043;-77
2022/07/25 10:45:50;;;;;;;11.77;10.68;;;;;;;34.53;23.08;99983.56;5123384;27;20035;-77
2022/07/25 10:48:22;;;;;;;13.13;11.98;;;;;;;34.44;22.63;99990.97;5123642;27;20435;-77
2022/07/25 10:51:02;;;;;;;11.57;10.70;;;;;;;34.50;22.66;99978.44;5119772;27;20053;-77
2022/07/25 10:53:47;;;;;;;11.70;10.80;;;;;;;34.69;22.72;99967.09;5124184;27;20024;-77
2022/07/25 10:56:24;;;;;;;12.43;10.98;;;;;;;34.78;22.90;99964.28;5117828;27;20046;-76
2022/07/25 10:58:54;;;;;;;15.13;13.82;;;;;;;34.88;22.96;99963.03;5119451;27;20027;-76
2022/07/25 11:01:27;;;;;;;10.65;9.82;;;;;;;34.81;22.77;99963.94;5120215;27;20031;-76
2022/07/25 11:03:58;;;;;;;11.50;10.70;;;;;;;34.95;22.29;99946.69;5117011;27;20041;-76
2022/07/25 11:06:39;;;;;;;14.82;13.60;;;;;;;35.17;22.64;99947.78;5123173;27;20023;-76
2022/07/25 11:09:16;;;;;;;11.43;10.43;;;;;;;35.42;22.64;99942.06;5115321;27;20039;-76
2022/07/25 11:11:49;;;;;;;10.13;9.32;;;;;;;35.50;22.32;99931.91;5103206;27;20472;-76
2022/07/25 11:14:33;;;;;;;15.95;14.60;;;;;;;35.56;22.14;99942.13;5124111;27;20032;-76